sensor_id;sensor_type;location;lat;lon;timestamp;temperature;humidity
1534;DHT22;760;48.822;9.304;2022-12-11T05:04:58;0.20;99.90
1534;DHT22;760;48.822;9.304;2022-12-11T05:07:23;0.20;99.90
1534;DHT22;760;48.822;9.304;2022-12-11T05:09:49;0.20;99.90
1534;DHT22;760;48.822;9.304;2022-12-11T05:12:14;0.20;99.90
1534;DHT22;760;48.822;9.304;2022-12-11T05:14:40;0.30;99.90
1534;DHT22;760;48.822;9.304;2022-12-11T05:17:05;0.20;99.90
1534;DHT22;760;48.822;9.304;2022-12-11T05:19:31;0.30;99.90
1534;DHT22;760;48.822;9.304;2022-12-11T05:21:57;0.30;99.90
1534;DHT22;760;48.822;9.304;2022-12-11T05:24:22;0.30;99.90
1534;DHT22;760;48.822;9.304;2022-12-11T05:26:48;0.30;99.90
1534;DHT22;760;48.822;9.304;2022-12-11T05:29:13;0.20;99.90
1534;DHT22;760;48.822;9.304;2022-12-11T05:31:39;0.20;99.90
1534;DHT22;760;48.822;9.304;2022-12-11T05:34:04;0.30;99.90
1534;DHT22;760;48.822;9.304;2022-12-11T05:36:32;0.20;99.90
1534;DHT22;760;48.822;9.304;2022-12-11T05:38:58;0.20;99.90
1534;DHT22;760;48.822;9.304;2022-12-11T05:41:26;0.10;99.90
1534;DHT22;760;48.822;9.304;2022-12-11T05:43:52;0.00;99.90
1534;DHT22;760;48.822;9.304;2022-12-11T05:46:21;-0.10;99.90
1534;DHT22;760;48.822;9.304;2022-12-11T05:48:49;-0.10;99.90
1534;DHT22;760;48.822;9.304;2022-12-11T05:51:15;-0.10;99.90
1534;DHT22;760;48.822;9.304;2022-12-11T05:53:43;-0.10;99.90
1534;DHT22;760;48.822;9.304;2022-12-11T05:56:14;-0.30;99.90
1534;DHT22;760;48.822;9.304;2022-12-11T05:58:41;-0.40;99.90
1534;DHT22;760;48.822;9.304;2022-12-11T06:01:08;-0.50;99.90
1534;DHT22;760;48.822;9.304;2022-12-11T06:03:34;-0.50;99.90
1534;DHT22;760;48.822;9.304;2022-12-11T06:06:04;-0.50;99.90
1534;DHT22;760;48.822;9.304;2022-12-11T06:08:30;-0.50;99.90
1534;DHT22;760;48.822;9.304;2022-12-11T06:10:56;-0.40;99.90
1534;DHT22;760;48.822;9.304;2022-12-11T06:13:22;-0.40;99.90
1534;DHT22;760;48.822;9.304;2022-12-11T06:15:48;-0.30;99.90
1534;DHT22;760;48.822;9.304;2022-12-11T06:18:13;-0.30;99.90
1534;DHT22;760;48.822;9.304;2022-12-11T06:20:39;-0.30;99.90
1534;DHT22;760;48.822;9.304;2022-12-11T06:23:06;-0.30;99.90
1534;DHT22;760;48.822;9.304;2022-12-11T06:25:31;-0.30;99.90
1534;DHT22;760;48.822;9.304;2022-12-11T06:27:57;-0.30;99.90
1534;DHT22;760;48.822;9.304;2022-12-11T06:30:23;-0.30;99.90
1534;DHT22;760;48.822;9.304;2022-12-11T06:32:49;-0.40;99.90
1534;DHT22;760;48.822;9.304;2022-12-11T06:35:14;-0.50;99.90
1534;DHT22;760;48.822;9.304;2022-12-11T06:37:40;-0.60;99.90
1534;DHT22;760;48.822;9.304;2022-12-11T06:40:07;-0.60;99.90
1534;DHT22;760;48.822;9.304;2022-12-11T06:42:33;-0.60;99.90
1534;DHT22;760;48.822;9.304;2022-12-11T06:44:59;-0.60;99.90
1534;DHT22;760;48.822;9.304;2022-12-11T06:47:25;-0.70;99.90
1534;DHT22;760;48.822;9.304;2022-12-11T06:49:51;-0.70;99.90
1534;DHT22;760;48.822;9.304;2022-12-11T06:52:18;-0.80;99.90
1534;DHT22;760;48.822;9.304;2022-12-11T06:54:44;-0.80;99.90
1534;DHT22;760;48.822;9.304;2022-12-11T06:57:09;-0.90;99.90
1534;DHT22;760;48.822;9.304;2022-12-11T06:59:35;-0.90;99.90
1534;DHT22;760;48.822;9.304;2022-12-11T07:02:00;-1.00;99.90
1534;DHT22;760;48.822;9.304;2022-12-11T07:04:26;-1.00;99.90
1534;DHT22;760;48.822;9.304;2022-12-11T07:06:52;-1.00;99.90
1534;DHT22;760;48.822;9.304;2022-12-11T07:09:18;-1.00;99.90
1534;DHT22;760;48.822;9.304;2022-12-11T07:11:44;-1.00;99.90
1534;DHT22;760;48.822;9.304;2022-12-11T07:14:09;-0.90;99.90
1534;DHT22;760;48.822;9.304;2022-12-11T07:16:35;-0.80;99.90
1534;DHT22;760;48.822;9.304;2022-12-11T07:19:01;-0.70;99.90
1534;DHT22;760;48.822;9.304;2022-12-11T07:21:27;-0.60;99.90
1534;DHT22;760;48.822;9.304;2022-12-11T07:23:52;-0.50;99.90
1534;DHT22;760;48.822;9.304;2022-12-11T07:26:20;-0.40;99.90
1534;DHT22;760;48.822;9.304;2022-12-11T07:28:46;-0.40;99.90
1534;DHT22;760;48.822;9.304;2022-12-11T07:31:18;-0.30;99.90
1534;DHT22;760;48.822;9.304;2022-12-11T07:33:44;-0.30;99.90
1534;DHT22;760;48.822;9.304;2022-12-11T07:36:11;-0.20;99.90
1534;DHT22;760;48.822;9.304;2022-12-11T07:38:37;-0.20;99.90
1534;DHT22;760;48.822;9.304;2022-12-11T07:41:05;-0.10;99.90
1534;DHT22;760;48.822;9.304;2022-12-11T07:43:32;-0.10;99.90
1534;DHT22;760;48.822;9.304;2022-12-11T07:46:11;-0.10;99.90
1534;DHT22;760;48.822;9.304;2022-12-11T07:48:38;0.00;99.90
1534;DHT22;760;48.822;9.304;2022-12-11T07:51:15;0.00;99.90
1534;DHT22;760;48.822;9.304;2022-12-11T07:53:42;0.10;99.90
1534;DHT22;760;48.822;9.304;2022-12-11T07:56:07;0.10;99.90
1534;DHT22;760;48.822;9.304;2022-12-11T07:58:33;0.20;99.90
1534;DHT22;760;48.822;9.304;2022-12-11T08:00:59;0.20;99.90
1534;DHT22;760;48.822;9.304;2022-12-11T08:03:25;0.20;99.90
1534;DHT22;760;48.822;9.304;2022-12-11T08:05:51;0.20;99.90
1534;DHT22;760;48.822;9.304;2022-12-11T08:08:18;0.30;99.90
1534;DHT22;760;48.822;9.304;2022-12-11T08:10:43;0.30;99.90
1534;DHT22;760;48.822;9.304;2022-12-11T08:13:09;0.30;99.90
1534;DHT22;760;48.822;9.304;2022-12-11T08:15:35;0.30;99.90
1534;DHT22;760;48.822;9.304;2022-12-11T08:18:01;0.30;99.90
1534;DHT22;760;48.822;9.304;2022-12-11T08:20:26;0.40;99.90
1534;DHT22;760;48.822;9.304;2022-12-11T08:22:52;0.40;99.90
1534;DHT22;760;48.822;9.304;2022-12-11T08:25:18;0.40;99.90
1534;DHT22;760;48.822;9.304;2022-12-11T08:27:43;0.50;99.90
1534;DHT22;760;48.822;9.304;2022-12-11T08:30:09;0.50;99.90
1534;DHT22;760;48.822;9.304;2022-12-11T08:32:35;0.60;99.90
1534;DHT22;760;48.822;9.304;2022-12-11T08:35:01;0.60;99.90
1534;DHT22;760;48.822;9.304;2022-12-11T08:37:26;0.70;99.90
1534;DHT22;760;48.822;9.304;2022-12-11T08:39:52;0.70;99.90
1534;DHT22;760;48.822;9.304;2022-12-11T08:42:17;0.70;99.90
1534;DHT22;760;48.822;9.304;2022-12-11T08:44:43;0.70;99.90
1534;DHT22;760;48.822;9.304;2022-12-11T08:47:09;0.60;99.90
1534;DHT22;760;48.822;9.304;2022-12-11T08:49:35;0.60;99.90
1534;DHT22;760;48.822;9.304;2022-12-11T08:52:04;0.60;99.90
1534;DHT22;760;48.822;9.304;2022-12-11T08:54:29;0.60;99.90
1534;DHT22;760;48.822;9.304;2022-12-11T08:56:55;0.50;99.90
1534;DHT22;760;48.822;9.304;2022-12-11T08:59:21;0.50;99.90
1534;DHT22;760;48.822;9.304;2022-12-11T09:01:47;0.60;99.90
1534;DHT22;760;48.822;9.304;2022-12-11T09:04:13;0.60;99.90
1534;DHT22;760;48.822;9.304;2022-12-11T09:06:38;0.60;99.90
1534;DHT22;760;48.822;9.304;2022-12-11T09:09:04;0.50;99.90
1534;DHT22;760;48.822;9.304;2022-12-11T09:11:32;0.50;99.90
1534;DHT22;760;48.822;9.304;2022-12-11T09:13:59;0.50;99.90
1534;DHT22;760;48.822;9.304;2022-12-11T09:16:25;0.60;99.90
1534;DHT22;760;48.822;9.304;2022-12-11T09:18:54;0.80;99.90
1534;DHT22;760;48.822;9.304;2022-12-11T09:21:22;0.90;99.90
1534;DHT22;760;48.822;9.304;2022-12-11T09:23:48;1.00;99.90
1534;DHT22;760;48.822;9.304;2022-12-11T09:26:17;1.10;99.90
1534;DHT22;760;48.822;9.304;2022-12-11T09:28:43;1.20;99.90
1534;DHT22;760;48.822;9.304;2022-12-11T09:31:15;1.40;99.90
1534;DHT22;760;48.822;9.304;2022-12-11T09:33:41;1.50;99.90
1534;DHT22;760;48.822;9.304;2022-12-11T09:36:07;1.60;99.90
1534;DHT22;760;48.822;9.304;2022-12-11T09:38:33;1.70;99.90
1534;DHT22;760;48.822;9.304;2022-12-11T09:41:01;1.80;99.90
1534;DHT22;760;48.822;9.304;2022-12-11T09:43:41;1.80;99.90
1534;DHT22;760;48.822;9.304;2022-12-11T09:46:12;1.80;99.90
1534;DHT22;760;48.822;9.304;2022-12-11T09:48:40;1.90;99.90
1534;DHT22;760;48.822;9.304;2022-12-11T09:51:20;1.90;99.90
1534;DHT22;760;48.822;9.304;2022-12-11T09:53:47;1.90;99.90
1534;DHT22;760;48.822;9.304;2022-12-11T09:56:38;2.00;99.90
1534;DHT22;760;48.822;9.304;2022-12-11T10:02:33;2.20;99.90
1534;DHT22;760;48.822;9.304;2022-12-11T10:07:52;3.00;99.90
1534;DHT22;760;48.822;9.304;2022-12-11T10:10:41;3.10;99.90
1534;DHT22;760;48.822;9.304;2022-12-11T10:13:11;3.00;99.90
1534;DHT22;760;48.822;9.304;2022-12-11T10:15:50;2.90;99.90
1534;DHT22;760;48.822;9.304;2022-12-11T10:18:19;2.70;99.90
1534;DHT22;760;48.822;9.304;2022-12-11T10:20:49;2.60;99.90
1534;DHT22;760;48.822;9.304;2022-12-11T10:23:39;2.60;99.90
1534;DHT22;760;48.822;9.304;2022-12-11T10:26:15;2.60;99.90
1534;DHT22;760;48.822;9.304;2022-12-11T10:28:41;2.70;99.90
1534;DHT22;760;48.822;9.304;2022-12-11T10:31:37;2.90;99.90
1534;DHT22;760;48.822;9.304;2022-12-11T10:34:25;2.80;99.90
1534;DHT22;760;48.822;9.304;2022-12-11T10:36:53;2.90;99.90
1534;DHT22;760;48.822;9.304;2022-12-11T10:39:20;2.90;99.90
1534;DHT22;760;48.822;9.304;2022-12-11T10:41:48;3.00;99.90
1534;DHT22;760;48.822;9.304;2022-12-11T10:44:18;3.10;99.90
1534;DHT22;760;48.822;9.304;2022-12-11T10:46:46;3.10;99.90
1534;DHT22;760;48.822;9.304;2022-12-11T10:49:27;3.00;99.90
1534;DHT22;760;48.822;9.304;2022-12-11T10:51:54;2.80;99.90
1534;DHT22;760;48.822;9.304;2022-12-11T10:54:51;2.70;99.90
1534;DHT22;760;48.822;9.304;2022-12-11T10:57:30;2.60;99.90
1534;DHT22;760;48.822;9.304;2022-12-11T10:59:57;2.70;99.90
1534;DHT22;760;48.822;9.304;2022-12-11T11:02:29;2.70;99.90
1534;DHT22;760;48.822;9.304;2022-12-11T11:04:57;2.70;99.90
1534;DHT22;760;48.822;9.304;2022-12-11T11:07:30;2.80;99.90
1534;DHT22;760;48.822;9.304;2022-12-11T11:10:23;2.80;99.90
1534;DHT22;760;48.822;9.304;2022-12-11T11:13:00;2.80;99.90
1534;DHT22;760;48.822;9.304;2022-12-11T11:15:28;2.90;99.90
1534;DHT22;760;48.822;9.304;2022-12-11T11:17:56;3.10;99.90
1534;DHT22;760;48.822;9.304;2022-12-11T11:20:27;3.10;99.90
1534;DHT22;760;48.822;9.304;2022-12-11T11:22:56;3.00;99.90
1534;DHT22;760;48.822;9.304;2022-12-11T11:25:30;2.90;99.90
1534;DHT22;760;48.822;9.304;2022-12-11T11:28:02;2.90;99.90
1534;DHT22;760;48.822;9.304;2022-12-11T11:30:40;2.90;99.90
1534;DHT22;760;48.822;9.304;2022-12-11T11:33:14;2.90;99.90
1534;DHT22;760;48.822;9.304;2022-12-11T11:35:52;2.90;99.90
1534;DHT22;760;48.822;9.304;2022-12-11T11:38:29;2.80;99.90
1534;DHT22;760;48.822;9.304;2022-12-11T11:43:47;3.00;99.90
1534;DHT22;760;48.822;9.304;2022-12-11T11:46:26;3.10;99.90
1534;DHT22;760;48.822;9.304;2022-12-11T11:57:14;3.40;99.90
1534;DHT22;760;48.822;9.304;2022-12-11T11:59:46;3.20;99.90
1534;DHT22;760;48.822;9.304;2022-12-11T12:02:15;3.00;99.90
1534;DHT22;760;48.822;9.304;2022-12-11T12:04:42;2.90;99.90
1534;DHT22;760;48.822;9.304;2022-12-11T12:07:38;2.90;99.90
1534;DHT22;760;48.822;9.304;2022-12-11T12:10:37;3.00;99.90
1534;DHT22;760;48.822;9.304;2022-12-11T12:13:24;3.00;99.90
1534;DHT22;760;48.822;9.304;2022-12-11T12:15:58;2.90;99.90
1534;DHT22;760;48.822;9.304;2022-12-11T12:18:57;2.90;99.90
1534;DHT22;760;48.822;9.304;2022-12-11T12:21:36;2.80;99.90
1534;DHT22;760;48.822;9.304;2022-12-11T12:26:38;2.70;99.90
1534;DHT22;760;48.822;9.304;2022-12-11T12:29:51;2.80;99.90
1534;DHT22;760;48.822;9.304;2022-12-11T12:32:45;2.70;99.90
1534;DHT22;760;48.822;9.304;2022-12-11T12:35:29;2.60;99.90
1534;DHT22;760;48.822;9.304;2022-12-11T12:45:58;2.40;99.90
1534;DHT22;760;48.822;9.304;2022-12-11T12:48:27;2.30;99.90
1534;DHT22;760;48.822;9.304;2022-12-11T12:50:54;2.30;99.90
1534;DHT22;760;48.822;9.304;2022-12-11T12:53:23;2.30;99.90
1534;DHT22;760;48.822;9.304;2022-12-11T12:55:49;2.30;99.90
1534;DHT22;760;48.822;9.304;2022-12-11T13:09:21;1.90;99.90
1534;DHT22;760;48.822;9.304;2022-12-11T13:11:49;1.80;99.90
1534;DHT22;760;48.822;9.304;2022-12-11T13:16:45;1.70;99.90
1534;DHT22;760;48.822;9.304;2022-12-11T13:21:58;1.80;99.90
1534;DHT22;760;48.822;9.304;2022-12-11T13:24:27;1.70;99.90
1534;DHT22;760;48.822;9.304;2022-12-11T13:26:53;1.70;99.90
1534;DHT22;760;48.822;9.304;2022-12-11T13:29:36;1.70;99.90
1534;DHT22;760;48.822;9.304;2022-12-11T13:34:37;1.50;99.90
1534;DHT22;760;48.822;9.304;2022-12-11T13:37:04;1.40;99.90
1534;DHT22;760;48.822;9.304;2022-12-11T13:39:39;1.40;99.90
1534;DHT22;760;48.822;9.304;2022-12-11T13:42:28;1.40;99.90
1534;DHT22;760;48.822;9.304;2022-12-11T13:44:56;1.40;99.90
1534;DHT22;760;48.822;9.304;2022-12-11T13:47:22;1.50;99.90
1534;DHT22;760;48.822;9.304;2022-12-11T13:49:53;1.50;99.90
1534;DHT22;760;48.822;9.304;2022-12-11T13:52:23;1.50;99.90
1534;DHT22;760;48.822;9.304;2022-12-11T13:54:54;1.50;99.90
1534;DHT22;760;48.822;9.304;2022-12-11T13:57:25;1.40;99.90
1534;DHT22;760;48.822;9.304;2022-12-11T13:59:54;1.40;99.90
1534;DHT22;760;48.822;9.304;2022-12-11T14:02:28;1.50;99.90
1534;DHT22;760;48.822;9.304;2022-12-11T14:05:02;1.50;99.90
1534;DHT22;760;48.822;9.304;2022-12-11T14:07:49;1.40;99.90
1534;DHT22;760;48.822;9.304;2022-12-11T14:12:53;1.40;99.90
1534;DHT22;760;48.822;9.304;2022-12-11T14:15:21;1.40;99.90
1534;DHT22;760;48.822;9.304;2022-12-11T14:17:47;1.40;99.90
1534;DHT22;760;48.822;9.304;2022-12-11T14:20:19;1.40;99.90
1534;DHT22;760;48.822;9.304;2022-12-11T14:22:46;1.40;99.90
1534;DHT22;760;48.822;9.304;2022-12-11T14:25:37;1.40;99.90
1534;DHT22;760;48.822;9.304;2022-12-11T14:28:03;1.40;99.90
1534;DHT22;760;48.822;9.304;2022-12-11T14:30:32;1.50;99.90
1534;DHT22;760;48.822;9.304;2022-12-11T14:33:00;1.40;99.90
1534;DHT22;760;48.822;9.304;2022-12-11T14:35:31;1.40;99.90
1534;DHT22;760;48.822;9.304;2022-12-11T14:38:00;1.30;99.90
1534;DHT22;760;48.822;9.304;2022-12-11T14:40:32;1.30;99.90
1534;DHT22;760;48.822;9.304;2022-12-11T14:43:01;1.20;99.90
1534;DHT22;760;48.822;9.304;2022-12-11T14:45:40;1.10;99.90
1534;DHT22;760;48.822;9.304;2022-12-11T14:48:12;1.10;99.90
1534;DHT22;760;48.822;9.304;2022-12-11T14:50:43;1.10;99.90
1534;DHT22;760;48.822;9.304;2022-12-11T14:53:21;1.10;99.90
1534;DHT22;760;48.822;9.304;2022-12-11T14:55:49;1.10;99.90
1534;DHT22;760;48.822;9.304;2022-12-11T14:58:22;1.10;99.90
1534;DHT22;760;48.822;9.304;2022-12-11T15:00:59;1.10;99.90
1534;DHT22;760;48.822;9.304;2022-12-11T15:03:34;1.00;99.90
1534;DHT22;760;48.822;9.304;2022-12-11T15:06:01;1.00;99.90
1534;DHT22;760;48.822;9.304;2022-12-11T15:08:31;1.00;99.90
1534;DHT22;760;48.822;9.304;2022-12-11T15:11:09;0.90;99.90
1534;DHT22;760;48.822;9.304;2022-12-11T15:13:56;0.80;99.90
1534;DHT22;760;48.822;9.304;2022-12-11T15:16:25;0.80;99.90
1534;DHT22;760;48.822;9.304;2022-12-11T15:18:53;0.80;99.90
1534;DHT22;760;48.822;9.304;2022-12-11T15:21:27;0.70;99.90
1534;DHT22;760;48.822;9.304;2022-12-11T15:23:56;0.70;99.90
1534;DHT22;760;48.822;9.304;2022-12-11T15:26:45;0.60;99.90
1534;DHT22;760;48.822;9.304;2022-12-11T15:32:00;0.50;99.90
1534;DHT22;760;48.822;9.304;2022-12-11T15:34:31;0.50;99.90
1534;DHT22;760;48.822;9.304;2022-12-11T15:36:58;0.50;99.90
1534;DHT22;760;48.822;9.304;2022-12-11T15:39:23;0.50;99.90
1534;DHT22;760;48.822;9.304;2022-12-11T15:41:49;0.60;99.90
1534;DHT22;760;48.822;9.304;2022-12-11T15:44:19;0.60;99.90
1534;DHT22;760;48.822;9.304;2022-12-11T15:46:45;0.50;99.90
1534;DHT22;760;48.822;9.304;2022-12-11T15:49:11;0.50;99.90
1534;DHT22;760;48.822;9.304;2022-12-11T15:51:37;0.50;99.90
1534;DHT22;760;48.822;9.304;2022-12-11T15:54:03;0.50;99.90
1534;DHT22;760;48.822;9.304;2022-12-11T15:56:29;0.40;99.90
1534;DHT22;760;48.822;9.304;2022-12-11T15:58:56;0.40;99.90
1534;DHT22;760;48.822;9.304;2022-12-11T16:01:25;0.40;99.90
1534;DHT22;760;48.822;9.304;2022-12-11T16:03:50;0.50;99.90
1534;DHT22;760;48.822;9.304;2022-12-11T16:06:16;0.50;99.90
1534;DHT22;760;48.822;9.304;2022-12-11T16:08:42;0.50;99.90
1534;DHT22;760;48.822;9.304;2022-12-11T16:11:11;0.50;99.90
1534;DHT22;760;48.822;9.304;2022-12-11T16:13:38;0.50;99.90
1534;DHT22;760;48.822;9.304;2022-12-11T16:16:04;0.60;99.90
1534;DHT22;760;48.822;9.304;2022-12-11T16:18:30;0.60;99.90
1534;DHT22;760;48.822;9.304;2022-12-11T16:20:56;0.70;99.90
1534;DHT22;760;48.822;9.304;2022-12-11T16:23:22;0.70;99.90
1534;DHT22;760;48.822;9.304;2022-12-11T16:25:48;0.70;99.90
1534;DHT22;760;48.822;9.304;2022-12-11T16:28:16;0.70;99.90
1534;DHT22;760;48.822;9.304;2022-12-11T16:30:43;0.70;99.90
1534;DHT22;760;48.822;9.304;2022-12-11T16:33:09;0.70;99.90
1534;DHT22;760;48.822;9.304;2022-12-11T16:35:34;0.70;99.90
1534;DHT22;760;48.822;9.304;2022-12-11T16:38:00;0.60;99.90
1534;DHT22;760;48.822;9.304;2022-12-11T16:40:26;0.50;99.90
1534;DHT22;760;48.822;9.304;2022-12-11T16:42:51;0.50;99.90
1534;DHT22;760;48.822;9.304;2022-12-11T16:45:20;0.50;99.90
1534;DHT22;760;48.822;9.304;2022-12-11T16:47:46;0.50;99.90
1534;DHT22;760;48.822;9.304;2022-12-11T16:50:13;0.40;99.90
1534;DHT22;760;48.822;9.304;2022-12-11T16:52:40;0.40;99.90
1534;DHT22;760;48.822;9.304;2022-12-11T16:55:06;0.40;99.90
1534;DHT22;760;48.822;9.304;2022-12-11T16:57:31;0.40;99.90
1534;DHT22;760;48.822;9.304;2022-12-11T16:59:57;0.40;99.90
1534;DHT22;760;48.822;9.304;2022-12-11T17:02:23;0.40;99.90
1534;DHT22;760;48.822;9.304;2022-12-11T17:04:48;0.40;99.90
1534;DHT22;760;48.822;9.304;2022-12-11T17:07:15;0.40;99.90
1534;DHT22;760;48.822;9.304;2022-12-11T17:09:41;0.40;99.90
1534;DHT22;760;48.822;9.304;2022-12-11T17:12:07;0.40;99.90
1534;DHT22;760;48.822;9.304;2022-12-11T17:14:32;0.40;99.90
1534;DHT22;760;48.822;9.304;2022-12-11T17:16:58;0.40;99.90
1534;DHT22;760;48.822;9.304;2022-12-11T17:19:24;0.40;99.90
1534;DHT22;760;48.822;9.304;2022-12-11T17:21:50;0.30;99.90
1534;DHT22;760;48.822;9.304;2022-12-11T17:24:16;0.30;99.90
1534;DHT22;760;48.822;9.304;2022-12-11T17:26:42;0.30;99.90
1534;DHT22;760;48.822;9.304;2022-12-11T17:29:08;0.30;99.90
1534;DHT22;760;48.822;9.304;2022-12-11T17:31:36;0.30;99.90
1534;DHT22;760;48.822;9.304;2022-12-11T17:34:02;0.20;99.90
1534;DHT22;760;48.822;9.304;2022-12-11T17:36:28;0.20;99.90
1534;DHT22;760;48.822;9.304;2022-12-11T17:38:53;0.10;99.90
1534;DHT22;760;48.822;9.304;2022-12-11T17:41:20;0.20;99.90
1534;DHT22;760;48.822;9.304;2022-12-11T17:43:50;0.10;99.90
1534;DHT22;760;48.822;9.304;2022-12-11T17:46:17;0.10;99.90
1534;DHT22;760;48.822;9.304;2022-12-11T17:48:43;0.00;99.90
1534;DHT22;760;48.822;9.304;2022-12-11T17:51:11;0.00;99.90
1534;DHT22;760;48.822;9.304;2022-12-11T17:53:37;0.00;99.90
1534;DHT22;760;48.822;9.304;2022-12-11T17:56:04;0.00;99.90
1534;DHT22;760;48.822;9.304;2022-12-11T17:58:30;0.00;99.90
1534;DHT22;760;48.822;9.304;2022-12-11T18:00:56;0.00;99.90
1534;DHT22;760;48.822;9.304;2022-12-11T18:03:24;-0.10;99.90
1534;DHT22;760;48.822;9.304;2022-12-11T18:05:53;-0.10;99.90
1534;DHT22;760;48.822;9.304;2022-12-11T18:08:22;-0.10;99.90
1534;DHT22;760;48.822;9.304;2022-12-11T18:10:50;-0.10;99.90
1534;DHT22;760;48.822;9.304;2022-12-11T18:13:17;-0.20;99.90
1534;DHT22;760;48.822;9.304;2022-12-11T18:15:42;-0.20;99.90
1534;DHT22;760;48.822;9.304;2022-12-11T18:18:09;-0.30;99.90
1534;DHT22;760;48.822;9.304;2022-12-11T18:20:35;-0.30;99.90
1534;DHT22;760;48.822;9.304;2022-12-11T18:23:02;-0.30;99.90
1534;DHT22;760;48.822;9.304;2022-12-11T18:25:28;-0.40;99.90
1534;DHT22;760;48.822;9.304;2022-12-11T18:27:54;-0.40;99.90
1534;DHT22;760;48.822;9.304;2022-12-11T18:30:20;-0.40;99.90
1534;DHT22;760;48.822;9.304;2022-12-11T18:32:46;-0.40;99.90
1534;DHT22;760;48.822;9.304;2022-12-11T18:35:13;-0.50;99.90
1534;DHT22;760;48.822;9.304;2022-12-11T18:37:38;-0.50;99.90
1534;DHT22;760;48.822;9.304;2022-12-11T18:40:06;-0.40;99.90
1534;DHT22;760;48.822;9.304;2022-12-11T18:42:32;-0.30;99.90
1534;DHT22;760;48.822;9.304;2022-12-11T18:44:57;-0.30;99.90
1534;DHT22;760;48.822;9.304;2022-12-11T18:47:23;-0.30;99.90
1534;DHT22;760;48.822;9.304;2022-12-11T18:49:49;-0.30;99.90
1534;DHT22;760;48.822;9.304;2022-12-11T18:52:14;-0.30;99.90
1534;DHT22;760;48.822;9.304;2022-12-11T18:54:40;-0.40;99.90
1534;DHT22;760;48.822;9.304;2022-12-11T18:57:06;-0.40;99.90
1534;DHT22;760;48.822;9.304;2022-12-11T18:59:32;-0.40;99.90
1534;DHT22;760;48.822;9.304;2022-12-11T19:01:58;-0.40;99.90
1534;DHT22;760;48.822;9.304;2022-12-11T19:04:23;-0.40;99.90
1534;DHT22;760;48.822;9.304;2022-12-11T19:06:49;-0.40;99.90
1534;DHT22;760;48.822;9.304;2022-12-11T19:09:14;-0.40;99.90
1534;DHT22;760;48.822;9.304;2022-12-11T19:11:40;-0.50;99.90
1534;DHT22;760;48.822;9.304;2022-12-11T19:14:07;-0.50;99.90
1534;DHT22;760;48.822;9.304;2022-12-11T19:16:35;-0.50;99.90
1534;DHT22;760;48.822;9.304;2022-12-11T19:19:08;-0.50;99.90
1534;DHT22;760;48.822;9.304;2022-12-11T19:21:36;-0.50;99.90
1534;DHT22;760;48.822;9.304;2022-12-11T19:24:04;-0.50;99.90
1534;DHT22;760;48.822;9.304;2022-12-11T19:26:30;-0.50;99.90
1534;DHT22;760;48.822;9.304;2022-12-11T19:28:56;-0.60;99.90
1534;DHT22;760;48.822;9.304;2022-12-11T19:31:26;-0.60;99.90
1534;DHT22;760;48.822;9.304;2022-12-11T19:33:52;-0.60;99.90
1534;DHT22;760;48.822;9.304;2022-12-11T19:36:21;-0.60;99.90
1534;DHT22;760;48.822;9.304;2022-12-11T19:38:48;-0.60;99.90
1534;DHT22;760;48.822;9.304;2022-12-11T19:41:23;-0.60;99.90
1534;DHT22;760;48.822;9.304;2022-12-11T19:43:49;-0.60;99.90
1534;DHT22;760;48.822;9.304;2022-12-11T19:46:16;-0.50;99.90
1534;DHT22;760;48.822;9.304;2022-12-11T19:48:42;-0.50;99.90
1534;DHT22;760;48.822;9.304;2022-12-11T19:51:11;-0.40;99.90
1534;DHT22;760;48.822;9.304;2022-12-11T19:53:37;-0.40;99.90
1534;DHT22;760;48.822;9.304;2022-12-11T19:56:03;-0.40;99.90
1534;DHT22;760;48.822;9.304;2022-12-11T19:58:29;-0.40;99.90
1534;DHT22;760;48.822;9.304;2022-12-11T20:00:55;-0.40;99.90
1534;DHT22;760;48.822;9.304;2022-12-11T20:03:21;-0.40;99.90
1534;DHT22;760;48.822;9.304;2022-12-11T20:05:47;-0.30;99.90
1534;DHT22;760;48.822;9.304;2022-12-11T20:08:14;-0.30;99.90
1534;DHT22;760;48.822;9.304;2022-12-11T20:10:39;-0.20;99.90
1534;DHT22;760;48.822;9.304;2022-12-11T20:13:05;-0.10;99.90
1534;DHT22;760;48.822;9.304;2022-12-11T20:15:31;-0.10;99.90
1534;DHT22;760;48.822;9.304;2022-12-11T20:17:59;0.00;99.90
1534;DHT22;760;48.822;9.304;2022-12-11T20:20:27;0.00;99.90
1534;DHT22;760;48.822;9.304;2022-12-11T20:22:55;0.00;99.90
1534;DHT22;760;48.822;9.304;2022-12-11T20:25:21;0.10;99.90
1534;DHT22;760;48.822;9.304;2022-12-11T20:27:48;0.10;99.90
1534;DHT22;760;48.822;9.304;2022-12-11T20:30:14;0.10;99.90
1534;DHT22;760;48.822;9.304;2022-12-11T20:32:39;0.20;99.90
1534;DHT22;760;48.822;9.304;2022-12-11T20:35:06;0.20;99.90
1534;DHT22;760;48.822;9.304;2022-12-11T20:37:32;0.20;99.90
1534;DHT22;760;48.822;9.304;2022-12-11T20:39:58;0.20;99.90
1534;DHT22;760;48.822;9.304;2022-12-11T20:42:24;0.30;99.90
1534;DHT22;760;48.822;9.304;2022-12-11T20:44:50;0.20;99.90
1534;DHT22;760;48.822;9.304;2022-12-11T20:47:16;0.20;99.90
1534;DHT22;760;48.822;9.304;2022-12-11T20:49:44;0.20;99.90
1534;DHT22;760;48.822;9.304;2022-12-11T20:52:10;0.30;99.90
1534;DHT22;760;48.822;9.304;2022-12-11T20:54:36;0.30;99.90
1534;DHT22;760;48.822;9.304;2022-12-11T20:57:01;0.30;99.90
1534;DHT22;760;48.822;9.304;2022-12-11T20:59:27;0.30;99.90
1534;DHT22;760;48.822;9.304;2022-12-11T21:01:53;0.30;99.90
1534;DHT22;760;48.822;9.304;2022-12-11T21:04:20;0.40;99.90
1534;DHT22;760;48.822;9.304;2022-12-11T21:06:46;0.40;99.90
1534;DHT22;760;48.822;9.304;2022-12-11T21:09:20;0.40;99.90
1534;DHT22;760;48.822;9.304;2022-12-11T21:11:46;0.40;99.90
1534;DHT22;760;48.822;9.304;2022-12-11T21:14:12;0.40;99.90
1534;DHT22;760;48.822;9.304;2022-12-11T21:16:38;0.50;99.90
1534;DHT22;760;48.822;9.304;2022-12-11T21:19:05;0.40;99.90
1534;DHT22;760;48.822;9.304;2022-12-11T21:21:32;0.40;99.90
1534;DHT22;760;48.822;9.304;2022-12-11T21:23:57;0.40;99.90
1534;DHT22;760;48.822;9.304;2022-12-11T21:26:23;0.40;99.90
1534;DHT22;760;48.822;9.304;2022-12-11T21:28:50;0.30;99.90
1534;DHT22;760;48.822;9.304;2022-12-11T21:31:17;0.30;99.90
1534;DHT22;760;48.822;9.304;2022-12-11T21:33:44;0.30;99.90
1534;DHT22;760;48.822;9.304;2022-12-11T21:36:11;0.30;99.90
1534;DHT22;760;48.822;9.304;2022-12-11T21:38:38;0.40;99.90
1534;DHT22;760;48.822;9.304;2022-12-11T21:41:11;0.40;99.90
1534;DHT22;760;48.822;9.304;2022-12-11T21:43:41;0.40;99.90
1534;DHT22;760;48.822;9.304;2022-12-11T21:46:14;0.40;99.90
1534;DHT22;760;48.822;9.304;2022-12-11T21:48:41;0.40;99.90
1534;DHT22;760;48.822;9.304;2022-12-11T21:51:16;0.40;99.90
1534;DHT22;760;48.822;9.304;2022-12-11T21:53:42;0.40;99.90
1534;DHT22;760;48.822;9.304;2022-12-11T21:56:09;0.40;99.90
1534;DHT22;760;48.822;9.304;2022-12-11T21:58:36;0.40;99.90
1534;DHT22;760;48.822;9.304;2022-12-11T22:01:03;0.40;99.90
1534;DHT22;760;48.822;9.304;2022-12-11T22:03:29;0.40;99.90
1534;DHT22;760;48.822;9.304;2022-12-11T22:05:55;0.40;99.90
1534;DHT22;760;48.822;9.304;2022-12-11T22:08:21;0.40;99.90
1534;DHT22;760;48.822;9.304;2022-12-11T22:10:47;0.30;99.90
1534;DHT22;760;48.822;9.304;2022-12-11T22:13:12;0.30;99.90
1534;DHT22;760;48.822;9.304;2022-12-11T22:15:38;0.40;99.90
1534;DHT22;760;48.822;9.304;2022-12-11T22:18:04;0.40;99.90
1534;DHT22;760;48.822;9.304;2022-12-11T22:20:29;0.40;99.90
1534;DHT22;760;48.822;9.304;2022-12-11T22:22:55;0.40;99.90
1534;DHT22;760;48.822;9.304;2022-12-11T22:25:20;0.40;99.90
1534;DHT22;760;48.822;9.304;2022-12-11T22:27:46;0.40;99.90
1534;DHT22;760;48.822;9.304;2022-12-11T22:30:12;0.40;99.90
1534;DHT22;760;48.822;9.304;2022-12-11T22:32:38;0.40;99.90
1534;DHT22;760;48.822;9.304;2022-12-11T22:35:04;0.40;99.90